EST,Max TemperatureF,Mean TemperatureF,Min TemperatureF,Max Dew PointF,MeanDew PointF,Min DewpointF,Max Humidity, Mean Humidity, Min Humidity, Max Sea Level PressureIn, Mean Sea Level PressureIn, Min Sea Level PressureIn, Max VisibilityMiles, Mean VisibilityMiles, Min VisibilityMiles, Max Wind SpeedMPH, Mean Wind SpeedMPH, Max Gust SpeedMPH,PrecipitationIn, CloudCover, Events, WindDirDegrees
2012-11-1,,,,,,,,,,,,,10,10,10,21,12,16,0.00,6,,257
2012-11-2,,,,,,,,,,,,,10,10,10,25,14,,0.00,6,,294
2012-11-3,,,,,,,,,,,,,10,10,10,18,13,24,0.00,6,,313
2012-11-4,53,44,35,34,31,28,81,65,44,30.10,30.08,30.04,10,10,10,12,6,17,0.00,4,,332
2012-11-5,50,39,28,36,30,28,100,75,47,30.22,30.13,30.07,10,10,10,12,6,17,0.00,5,,338
2012-11-6,48,36,23,30,27,23,100,84,46,30.25,30.17,30.07,10,8,4,8,2,,0.00,2,Snow,24
2012-11-7,42,38,35,30,29,27,70,64,57,30.01,29.96,29.94,10,10,10,12,8,,0.00,7,Thunderstorm,10
2012-11-8,53,42,32,32,26,19,75,57,28,30.10,30.00,29.94,10,10,10,18,6,24,0.00,1,,318
2012-11-9,57,45,33,37,34,30,100,75,44,30.25,30.18,30.10,10,10,10,12,7,18,0.00,0,,315
2012-11-10,66,48,30,45,36,30,100,90,43,30.40,30.33,30.25,10,8,3,4,0,,0.00,0,,240
2012-11-11,71,52,32,48,39,32,100,87,43,30.50,30.42,30.38,10,7,0,8,0,,0.00,0,Fog-Snow,137
2012-11-12,68,55,42,57,50,37,100,83,58,30.43,30.30,30.15,10,9,4,23,6,31,0.05,3,Rain,174
2012-11-13,50,40,30,46,37,28,100,85,57,30.52,30.39,30.24,10,9,5,13,6,28,0.29,4,Rain-Snow,338
2012-11-14,48,37,26,32,29,27,100,90,50,30.60,30.52,30.48,10,8,4,12,1,,0.00,1,,36
2012-11-15,46,36,26,36,31,27,100,93,66,30.47,30.40,30.34,10,10,7,8,1,,0.00,3,,26
2012-11-16,53,40,28,37,32,28,100,90,47,30.48,30.39,30.33,10,8,4,9,1,,0.00,0,,33
2012-11-17,57,40,24,36,30,25,100,88,38,30.63,30.58,30.49,10,9,1,10,1,,0.00,0,,26
2012-11-18,55,42,28,39,34,28,100,85,54,30.66,30.61,30.55,10,9,6,9,2,,0.00,3,,28
2012-11-19,53,42,30,39,35,30,100,87,58,30.54,30.42,30.27,10,8,3,8,3,,0.00,4,Snow,19
2012-11-20,55,42,30,45,36,30,100,94,63,30.26,30.20,30.13,10,5,0,0,0,,0.00,2,Fog-Snow,-1
2012-11-21,57,42,28,41,32,28,100,90,41,30.26,30.21,30.16,10,5,0,7,1,,0.00,3,Fog-Snow,23
2012-11-22,64,44,24,39,31,25,100,90,37,30.31,30.24,30.17,10,8,3,0,0,,0.00,0,Snow,-1
2012-11-23,62,44,26,41,32,27,100,74,39,30.16,29.98,29.81,10,8,3,22,3,31,0.00,2,Snow,271
2012-11-24,42,38,33,28,24,21,65,60,49,30.06,29.98,29.91,10,10,10,23,15,34,0.00,7,,301
2012-11-25,42,33,23,27,23,21,100,70,46,30.09,30.03,29.96,10,10,10,13,7,18,0.00,4,Snow,267
2012-11-26,55,39,23,37,28,23,100,88,38,30.25,30.15,30.02,10,10,7,9,1,,0.00,1,Snow,247
2012-11-27,39,36,32,39,34,32,100,95,87,30.30,30.25,30.21,10,6,2,12,3,,0.10,8,Rain,13
2012-11-28,46,36,26,34,28,23,100,79,43,30.40,30.32,30.27,10,10,7,14,3,18,0.00,4,Snow,323
2012-11-29,48,36,23,30,26,23,100,90,40,30.48,30.40,30.35,10,8,5,10,2,,0.00,0,Snow,200
2012-11-30,55,38,21,36,28,21,100,90,44,30.40,30.37,30.32,10,9,7,5,0,,0.00,1,Snow,43